createdAt,value
2018-12-14T00:00:45.579Z,-4.40
2018-12-14T00:03:17.910Z,-4.40
2018-12-14T00:05:50.009Z,-4.40
2018-12-14T00:08:22.274Z,-4.40
2018-12-14T00:10:57.224Z,-4.40
2018-12-14T00:13:29.664Z,-4.40
2018-12-14T00:16:02.168Z,-4.40
2018-12-14T00:18:34.142Z,-4.70
2018-12-14T00:21:06.831Z,-4.70
2018-12-14T00:23:42.294Z,-4.40
2018-12-14T00:26:14.945Z,-4.50
2018-12-14T00:28:46.713Z,-4.40
2018-12-14T00:31:20.514Z,-4.40
2018-12-14T00:33:57.796Z,-4.50
2018-12-14T00:36:30.898Z,-4.50
2018-12-14T00:39:04.800Z,-4.50
2018-12-14T00:41:37.422Z,-4.50
2018-12-14T00:44:16.022Z,-4.30
2018-12-14T00:46:48.577Z,-4.60
2018-12-14T00:49:20.505Z,-4.50
2018-12-14T00:51:57.211Z,-4.60
2018-12-14T00:54:32.274Z,-4.60
2018-12-14T00:57:09.161Z,-4.60
2018-12-14T00:59:44.618Z,-4.70
2018-12-14T01:02:22.477Z,-4.70
2018-12-14T01:04:57.465Z,-4.60
2018-12-14T01:07:29.896Z,-4.70
2018-12-14T01:10:02.033Z,-4.60
2018-12-14T01:12:34.736Z,-4.70
2018-12-14T01:15:07.663Z,-4.60
2018-12-14T01:17:49.075Z,-4.70
2018-12-14T01:20:21.635Z,-4.70
2018-12-14T01:22:56.763Z,-4.70
2018-12-14T01:25:29.351Z,-4.70
2018-12-14T01:28:01.959Z,-4.70
2018-12-14T01:30:34.066Z,-4.70
2018-12-14T01:33:06.222Z,-4.80
2018-12-14T01:35:38.132Z,-4.80
2018-12-14T01:38:13.459Z,-4.80
2018-12-14T01:40:45.369Z,-4.80
2018-12-14T01:43:20.225Z,-4.70
2018-12-14T01:45:57.223Z,-4.80
2018-12-14T01:48:29.515Z,-4.80
2018-12-14T01:51:02.287Z,-4.80
2018-12-14T01:53:35.314Z,-4.80
2018-12-14T01:56:07.745Z,-4.80
2018-12-14T01:58:47.409Z,-4.80
2018-12-14T02:01:23.065Z,-4.80
2018-12-14T02:03:59.107Z,-4.80
2018-12-14T02:06:31.445Z,-4.80
2018-12-14T02:09:10.322Z,-4.80
2018-12-14T02:11:45.299Z,-4.80
2018-12-14T02:14:22.273Z,-4.70
2018-12-14T02:16:59.234Z,-4.80
2018-12-14T02:19:31.654Z,-4.70
2018-12-14T02:22:06.532Z,-4.80
2018-12-14T02:24:39.022Z,-4.80
2018-12-14T02:27:11.069Z,-4.80
2018-12-14T02:29:43.009Z,-4.90
2018-12-14T02:32:15.056Z,-4.90
2018-12-14T02:37:22.095Z,-5.00
2018-12-14T02:39:54.786Z,-5.00
2018-12-14T02:42:30.120Z,-5.00
2018-12-14T02:45:02.240Z,-5.00
2018-12-14T02:47:34.413Z,-5.00
2018-12-14T02:50:08.319Z,-5.00
2018-12-14T02:52:40.937Z,-5.00
2018-12-14T02:55:13.123Z,-5.00
2018-12-14T02:57:45.344Z,-5.00
2018-12-14T03:00:20.169Z,-5.00
2018-12-14T03:02:52.839Z,-5.00
2018-12-14T03:05:28.004Z,-5.00
2018-12-14T03:08:04.352Z,-4.90
2018-12-14T03:10:37.551Z,-5.00
2018-12-14T03:13:12.347Z,-5.30
2018-12-14T03:15:44.953Z,-5.10
2018-12-14T03:18:17.608Z,-5.10
2018-12-14T03:20:52.430Z,-5.10
2018-12-14T03:23:27.642Z,-5.20
2018-12-14T03:26:03.115Z,-5.00
2018-12-14T03:28:35.334Z,-5.00
2018-12-14T03:31:10.085Z,-4.90
2018-12-14T03:33:42.423Z,-4.90
2018-12-14T03:36:14.418Z,-5.00
2018-12-14T03:41:21.407Z,-5.00
2018-12-14T03:43:53.235Z,-5.00
2018-12-14T03:46:27.920Z,-5.00
2018-12-14T03:49:02.972Z,-5.00
2018-12-14T03:51:35.114Z,-5.10
2018-12-14T03:54:10.060Z,-5.10
2018-12-14T03:56:42.491Z,-5.10
2018-12-14T03:59:15.088Z,-5.10
2018-12-14T04:01:48.173Z,-5.10
2018-12-14T04:04:20.102Z,-5.10
2018-12-14T04:06:52.036Z,-5.00
2018-12-14T04:09:24.052Z,-5.10
2018-12-14T04:11:55.921Z,-5.10
2018-12-14T04:14:32.915Z,-5.10
2018-12-14T04:17:08.243Z,-5.20
2018-12-14T04:19:40.157Z,-5.30
2018-12-14T04:22:16.037Z,-5.20
2018-12-14T04:24:48.402Z,-5.20
2018-12-14T04:27:20.987Z,-5.10
2018-12-14T04:29:52.818Z,-5.10
2018-12-14T04:32:25.171Z,-5.10
2018-12-14T04:34:57.911Z,-5.20
2018-12-14T04:37:33.506Z,-5.20
2018-12-14T04:45:18.750Z,-5.10
2018-12-14T04:47:50.718Z,-5.10
2018-12-14T04:50:23.472Z,-5.20
2018-12-14T04:52:58.538Z,-5.20
2018-12-14T04:55:31.186Z,-5.20
2018-12-14T04:58:04.764Z,-5.30
2018-12-14T05:00:37.169Z,-5.30
2018-12-14T05:03:09.015Z,-5.20
2018-12-14T05:05:41.299Z,-5.30
2018-12-14T05:08:13.571Z,-5.30
2018-12-14T05:10:48.334Z,-5.20
2018-12-14T05:13:20.673Z,-5.20
2018-12-14T05:15:53.018Z,-5.30
2018-12-14T05:18:24.975Z,-5.10
2018-12-14T05:20:57.234Z,-5.30
2018-12-14T05:23:29.343Z,-5.30
2018-12-14T05:26:04.225Z,-5.30
2018-12-14T05:28:39.359Z,-5.30
2018-12-14T05:31:11.599Z,-5.30
2018-12-14T05:33:47.273Z,-5.30
2018-12-14T05:36:19.392Z,-5.30
2018-12-14T05:38:55.039Z,-5.30
2018-12-14T05:41:27.488Z,-5.30
2018-12-14T05:43:59.531Z,-5.40
2018-12-14T06:04:29.634Z,-5.50
2018-12-14T06:09:34.533Z,-5.50
2018-12-14T06:12:06.829Z,-5.50
2018-12-14T06:14:39.605Z,-5.60
2018-12-14T06:17:13.206Z,-5.50
2018-12-14T06:19:48.387Z,-5.50
2018-12-14T06:22:20.903Z,-5.60
2018-12-14T06:24:56.092Z,-5.50
2018-12-14T06:27:28.339Z,-5.60
2018-12-14T06:30:00.317Z,-5.60
2018-12-14T06:32:32.775Z,-5.60
2018-12-14T06:35:06.871Z,-5.60
2018-12-14T06:37:42.998Z,-5.60
2018-12-14T06:40:18.449Z,-5.60
2018-12-14T06:42:51.110Z,-5.60
2018-12-14T06:45:23.147Z,-5.50
2018-12-14T06:47:55.168Z,-5.60
2018-12-14T06:50:29.123Z,-5.50
2018-12-14T06:53:01.971Z,-5.50
2018-12-14T06:55:37.317Z,-5.50
2018-12-14T06:58:09.529Z,-5.50
2018-12-14T07:00:45.357Z,-5.60
2018-12-14T07:03:18.024Z,-5.50
2018-12-14T07:05:50.499Z,-5.40
2018-12-14T07:08:22.714Z,-5.50
2018-12-14T07:13:29.740Z,-5.40
2018-12-14T07:16:04.782Z,-5.20
2018-12-14T07:18:37.928Z,-5.10
2018-12-14T07:21:10.472Z,-5.00
2018-12-14T07:23:42.969Z,-4.90
2018-12-14T07:26:14.849Z,-4.80
2018-12-14T07:28:46.766Z,-4.70
2018-12-14T07:31:18.908Z,-4.50
2018-12-14T07:33:53.897Z,-4.40
2018-12-14T07:36:26.431Z,-4.50
2018-12-14T07:38:58.501Z,-4.30
2018-12-14T07:41:33.372Z,-4.30
2018-12-14T07:44:08.226Z,-4.30
2018-12-14T07:46:40.709Z,-4.30
2018-12-14T07:49:12.597Z,-4.30
2018-12-14T07:51:44.658Z,-4.20
2018-12-14T07:54:19.632Z,-4.20
2018-12-14T07:56:55.686Z,-4.30
2018-12-14T07:59:28.134Z,-4.20
2018-12-14T08:02:02.872Z,-4.20
2018-12-14T08:04:35.470Z,-4.20
2018-12-14T08:07:07.632Z,-4.10
2018-12-14T08:09:42.829Z,-4.10
2018-12-14T08:12:15.899Z,-4.00
2018-12-14T08:14:51.071Z,-3.90
2018-12-14T08:17:26.127Z,-3.70
2018-12-14T08:19:58.321Z,-3.60
2018-12-14T08:22:30.588Z,-3.40
2018-12-14T08:25:06.357Z,-3.20
2018-12-14T08:27:38.671Z,-3.10
2018-12-14T08:30:10.921Z,-3.00
2018-12-14T08:32:42.702Z,-2.90
2018-12-14T08:35:14.815Z,-2.80
2018-12-14T08:37:49.870Z,-2.80
2018-12-14T08:40:21.922Z,-2.60
2018-12-14T08:42:56.930Z,-2.50
2018-12-14T08:45:29.207Z,-2.50
2018-12-14T08:48:01.514Z,-2.40
2018-12-14T08:50:36.430Z,-2.30
2018-12-14T08:53:08.377Z,-2.20
2018-12-14T08:55:40.756Z,-2.10
2018-12-14T08:58:13.473Z,-1.90
2018-12-14T09:00:53.002Z,-1.70
2018-12-14T09:03:32.483Z,-1.50
2018-12-14T09:06:09.642Z,-1.40
2018-12-14T09:11:58.109Z,-1.10
2018-12-14T09:14:32.846Z,-0.90
2018-12-14T09:17:11.910Z,-0.60
2018-12-14T09:19:47.610Z,-0.40
2018-12-14T09:22:23.116Z,-0.30
2018-12-14T09:24:58.494Z,0.00
2018-12-14T09:27:31.524Z,0.20
2018-12-14T09:30:06.764Z,0.50
2018-12-14T09:32:41.900Z,0.70
2018-12-14T09:35:14.905Z,1.00
2018-12-14T09:37:47.336Z,1.10
2018-12-14T09:40:21.080Z,1.20
2018-12-14T09:42:56.198Z,1.40
2018-12-14T09:45:28.387Z,1.70
2018-12-14T09:48:00.566Z,2.00
2018-12-14T09:50:35.418Z,2.20
2018-12-14T09:53:07.625Z,2.60
2018-12-14T09:55:46.315Z,3.00
2018-12-14T09:58:18.927Z,3.10
2018-12-14T10:00:52.471Z,3.00
2018-12-14T10:03:24.927Z,3.00
2018-12-14T10:05:57.046Z,3.30
2018-12-14T10:08:29.279Z,3.50
2018-12-14T10:11:02.280Z,3.70
2018-12-14T10:13:34.056Z,4.00
2018-12-14T10:16:06.852Z,4.00
2018-12-14T10:18:39.912Z,4.00
2018-12-14T10:23:45.802Z,3.80
2018-12-14T10:44:21.738Z,3.30
2018-12-14T10:46:56.796Z,3.20
2018-12-14T10:49:30.090Z,3.40
2018-12-14T10:52:04.984Z,3.80
2018-12-14T10:54:37.812Z,4.10
2018-12-14T10:57:16.058Z,4.10
2018-12-14T10:59:44.700Z,4.20
2018-12-14T11:02:19.295Z,4.10
2018-12-14T11:04:51.627Z,4.00
2018-12-14T11:07:23.606Z,4.20
2018-12-14T11:10:02.303Z,4.20
2018-12-14T11:12:34.597Z,4.10
2018-12-14T11:15:07.198Z,4.20
2018-12-14T11:17:42.366Z,4.30
2018-12-14T11:20:14.926Z,4.60
2018-12-14T11:22:47.573Z,4.40
2018-12-14T11:25:22.345Z,4.20
2018-12-14T11:27:54.588Z,4.30
2018-12-14T11:30:26.761Z,4.30
2018-12-14T11:33:03.422Z,4.30
2018-12-14T11:35:38.457Z,4.30
2018-12-14T11:38:11.493Z,4.30
2018-12-14T11:40:44.049Z,4.30
2018-12-14T11:43:17.239Z,4.30
2018-12-14T11:45:49.718Z,4.50
2018-12-14T11:48:21.872Z,4.60
2018-12-14T11:50:56.928Z,4.40
2018-12-14T11:53:29.683Z,4.50
2018-12-14T11:56:01.952Z,4.60
2018-12-14T11:58:36.895Z,4.70
2018-12-14T12:01:08.990Z,4.80
2018-12-14T12:03:44.940Z,5.10
2018-12-14T12:06:32.488Z,5.20
2018-12-14T12:09:09.000Z,5.50
2018-12-14T12:11:44.463Z,5.40
2018-12-14T12:14:17.368Z,5.60
2018-12-14T12:16:49.738Z,5.80
2018-12-14T12:19:21.741Z,5.80
2018-12-14T12:21:54.689Z,5.60
2018-12-14T12:24:27.389Z,5.80
2018-12-14T12:26:59.376Z,5.90
2018-12-14T12:29:31.482Z,6.00
2018-12-14T12:32:03.611Z,6.00
2018-12-14T12:34:38.338Z,6.20
2018-12-14T12:37:13.479Z,6.50
2018-12-14T12:39:45.743Z,6.40
2018-12-14T12:42:17.893Z,6.30
2018-12-14T12:44:49.870Z,6.30
2018-12-14T12:47:23.230Z,6.40
2018-12-14T12:52:31.052Z,6.30
2018-12-14T12:55:06.185Z,6.40
2018-12-14T12:57:41.832Z,6.10
2018-12-14T13:00:14.975Z,6.00
2018-12-14T13:02:51.119Z,5.80
2018-12-14T13:05:23.810Z,5.50
2018-12-14T13:07:56.227Z,5.20
2018-12-14T13:10:27.764Z,4.80
2018-12-14T13:13:00.479Z,4.60
2018-12-14T13:15:32.584Z,4.60
2018-12-14T13:18:05.731Z,4.30
2018-12-14T13:20:41.505Z,4.30
2018-12-14T13:23:13.997Z,4.20
2018-12-14T13:25:46.520Z,4.30
2018-12-14T13:28:18.741Z,4.20
2018-12-14T13:30:54.153Z,4.20
2018-12-14T13:33:26.903Z,4.20
2018-12-14T13:35:59.178Z,4.10
2018-12-14T13:38:33.161Z,4.10
2018-12-14T13:41:08.343Z,4.20
2018-12-14T13:43:46.138Z,4.20
2018-12-14T13:46:18.282Z,4.30
2018-12-14T13:48:50.045Z,4.30
2018-12-14T13:56:34.354Z,4.10
2018-12-14T13:59:07.110Z,4.20
2018-12-14T14:01:40.021Z,4.30
2018-12-14T14:04:12.021Z,4.30
2018-12-14T14:06:45.504Z,4.00
2018-12-14T14:09:22.206Z,3.90
2018-12-14T14:11:56.912Z,3.80
2018-12-14T14:14:30.712Z,3.70
2018-12-14T14:17:02.654Z,3.50
2018-12-14T14:19:35.585Z,3.20
2018-12-14T14:22:10.680Z,3.10
2018-12-14T14:24:43.040Z,2.80
2018-12-14T14:27:22.239Z,2.80
2018-12-14T14:29:59.212Z,2.60
2018-12-14T14:32:35.372Z,2.60
2018-12-14T14:35:07.995Z,2.50
2018-12-14T14:37:40.108Z,2.50
2018-12-14T14:40:14.932Z,2.60
2018-12-14T14:42:50.121Z,2.60
2018-12-14T14:45:22.676Z,2.60
2018-12-14T14:47:58.135Z,2.80
2018-12-14T14:50:30.706Z,2.80
2018-12-14T14:53:02.611Z,2.90
2018-12-14T14:55:34.722Z,2.80
2018-12-14T14:58:06.921Z,2.60
2018-12-14T15:00:38.910Z,2.50
2018-12-14T15:03:11.681Z,2.50
2018-12-14T15:05:44.251Z,2.40
2018-12-14T15:08:19.575Z,2.30
2018-12-14T15:10:53.846Z,2.20
2018-12-14T15:13:28.563Z,2.10
2018-12-14T15:16:05.720Z,2.10
2018-12-14T15:18:40.611Z,2.10
2018-12-14T15:21:13.954Z,2.00
2018-12-14T15:23:49.056Z,1.90
2018-12-14T15:26:21.090Z,1.90
2018-12-14T15:28:54.372Z,1.90
2018-12-14T15:31:29.144Z,1.60
2018-12-14T15:34:04.668Z,1.60
2018-12-14T15:36:36.780Z,1.50
2018-12-14T15:39:08.773Z,1.50
2018-12-14T15:41:40.954Z,1.50
2018-12-14T15:44:12.720Z,1.30
2018-12-14T15:46:44.950Z,1.20
2018-12-14T15:49:16.952Z,1.20
2018-12-14T15:51:55.644Z,1.20
2018-12-14T15:54:30.976Z,1.10
2018-12-14T15:59:42.512Z,0.90
2018-12-14T16:02:14.635Z,0.80
2018-12-14T16:04:53.329Z,0.70
2018-12-14T16:07:30.092Z,0.60
2018-12-14T16:10:02.832Z,0.60
2018-12-14T16:12:38.504Z,0.50
2018-12-14T16:15:26.183Z,0.50
2018-12-14T16:18:01.137Z,0.40
2018-12-14T16:20:36.069Z,0.40
2018-12-14T16:23:08.476Z,0.40
2018-12-14T16:25:43.407Z,0.40
2018-12-14T16:31:31.382Z,0.20
2018-12-14T16:34:06.019Z,0.20
2018-12-14T16:36:39.776Z,0.10
2018-12-14T16:39:17.227Z,0.00
2018-12-14T16:41:55.858Z,0.00
2018-12-14T16:44:29.494Z,0.00
2018-12-14T16:47:05.170Z,0.00
2018-12-14T16:49:38.128Z,0.10
2018-12-14T16:52:14.846Z,0.00
2018-12-14T16:54:51.113Z,0.10
2018-12-14T16:57:25.729Z,0.10
2018-12-14T16:59:59.316Z,0.00
2018-12-14T17:02:32.663Z,-0.10
2018-12-14T17:05:07.616Z,-0.10
2018-12-14T17:07:41.170Z,-0.20
2018-12-14T17:10:14.156Z,-0.20
2018-12-14T17:12:46.537Z,-0.30
2018-12-14T17:15:18.717Z,-0.40
2018-12-14T17:17:50.867Z,-0.40
2018-12-14T17:20:23.429Z,-0.50
2018-12-14T17:22:55.275Z,-0.50
2018-12-14T17:25:32.232Z,-0.50
2018-12-14T17:28:05.340Z,-0.50
2018-12-14T17:30:38.596Z,-0.50
2018-12-14T17:33:17.760Z,-0.60
2018-12-14T17:35:51.273Z,-0.60
2018-12-14T17:38:26.451Z,-0.50
2018-12-14T17:40:58.798Z,-0.50
2018-12-14T17:43:33.790Z,-0.60
2018-12-14T17:46:06.033Z,-0.50
2018-12-14T17:48:38.663Z,-0.60
2018-12-14T17:51:15.203Z,-0.70
2018-12-14T17:53:47.493Z,-0.80
2018-12-14T17:56:23.253Z,-0.80
2018-12-14T17:58:56.835Z,-0.80
2018-12-14T18:01:33.441Z,-0.80
2018-12-14T18:04:05.571Z,-0.80
2018-12-14T18:06:40.612Z,-0.80
2018-12-14T18:09:15.422Z,-0.90
2018-12-14T18:11:48.017Z,-1.00
2018-12-14T18:14:23.349Z,-1.00
2018-12-14T18:16:55.250Z,-1.10
2018-12-14T18:19:27.030Z,-1.00
2018-12-14T18:21:59.064Z,-1.10
2018-12-14T18:24:34.108Z,-1.10
2018-12-14T18:27:06.003Z,-1.10
2018-12-14T18:29:40.570Z,-1.00
2018-12-14T18:32:14.016Z,-1.10
2018-12-14T18:34:46.094Z,-1.10
2018-12-14T18:37:18.293Z,-1.10
2018-12-14T18:39:50.261Z,-1.10
2018-12-14T18:42:24.981Z,-1.20
2018-12-14T18:44:57.427Z,-1.10
2018-12-14T18:47:32.171Z,-1.20
2018-12-14T18:50:06.595Z,-1.20
2018-12-14T18:52:41.522Z,-1.30
2018-12-14T18:55:16.682Z,-1.30
2018-12-14T18:57:51.775Z,-1.30
2018-12-14T19:00:25.286Z,-1.30
2018-12-14T19:05:32.248Z,-1.30
2018-12-14T19:08:04.781Z,-1.30
2018-12-14T19:10:39.958Z,-1.30
2018-12-14T19:13:16.016Z,-1.30
2018-12-14T19:15:48.657Z,-1.30
2018-12-14T19:18:23.682Z,-1.30
2018-12-14T19:20:56.776Z,-1.30
2018-12-14T19:23:31.815Z,-1.40
2018-12-14T19:26:06.730Z,-1.40
2018-12-14T19:28:39.905Z,-1.40
2018-12-14T19:31:13.249Z,-1.40
2018-12-14T19:33:45.218Z,-1.40
2018-12-14T19:36:17.896Z,-1.50
2018-12-14T19:38:49.936Z,-1.40
2018-12-14T19:41:22.839Z,-1.50
2018-12-14T19:43:57.648Z,-1.50
2018-12-14T19:46:32.794Z,-1.60
2018-12-14T19:49:08.083Z,-1.60
2018-12-14T19:51:43.503Z,-1.70
2018-12-14T19:54:16.482Z,-1.70
2018-12-14T19:56:49.069Z,-1.70
2018-12-14T19:59:21.838Z,-1.70
2018-12-14T20:01:57.590Z,-1.70
